createdAt,value
2023-12-30T00:02:25.434Z,1.75
2023-12-30T00:04:52.423Z,2.20
2023-12-30T00:07:19.539Z,1.95
2023-12-30T00:09:46.538Z,2.05
2023-12-30T00:12:13.647Z,2.17
2023-12-30T00:14:40.768Z,1.80
2023-12-30T00:17:07.788Z,2.05
2023-12-30T00:19:36.593Z,1.90
2023-12-30T00:22:04.139Z,2.00
2023-12-30T00:24:31.605Z,2.22
2023-12-30T00:26:58.596Z,1.98
2023-12-30T00:29:25.538Z,2.50
2023-12-30T00:31:52.582Z,2.35
2023-12-30T00:34:19.737Z,2.22
2023-12-30T00:36:47.059Z,1.90
2023-12-30T00:39:14.088Z,2.22
2023-12-30T00:41:41.117Z,1.92
2023-12-30T00:44:08.533Z,2.30
2023-12-30T00:46:35.563Z,1.80
2023-12-30T00:49:02.908Z,2.03
2023-12-30T00:51:29.957Z,1.90
2023-12-30T00:53:56.965Z,2.17
2023-12-30T00:56:23.952Z,1.60
2023-12-30T00:58:50.912Z,1.73
2023-12-30T01:01:18.027Z,1.70
2023-12-30T01:03:45.186Z,1.83
2023-12-30T01:06:12.236Z,2.38
2023-12-30T01:08:39.320Z,2.28
2023-12-30T01:11:06.424Z,1.92
2023-12-30T01:13:33.644Z,2.05
2023-12-30T01:16:04.821Z,1.92
2023-12-30T01:18:32.020Z,1.73
2023-12-30T01:20:59.326Z,1.90
2023-12-30T01:23:26.337Z,2.38
2023-12-30T01:25:53.279Z,2.05
2023-12-30T01:28:20.441Z,2.00
2023-12-30T01:30:48.229Z,2.10
2023-12-30T01:33:15.381Z,2.30
2023-12-30T01:35:42.439Z,1.92
2023-12-30T01:38:09.382Z,1.60
2023-12-30T01:40:36.703Z,1.60
2023-12-30T01:43:06.296Z,1.90
2023-12-30T01:45:33.931Z,1.67
2023-12-30T01:48:01.727Z,1.83
2023-12-30T01:50:29.092Z,2.45
2023-12-30T01:52:56.165Z,1.80
2023-12-30T01:55:23.336Z,1.58
2023-12-30T01:57:50.623Z,2.45
2023-12-30T02:00:21.924Z,1.95
2023-12-30T02:02:51.000Z,1.83
2023-12-30T02:05:19.240Z,1.83
2023-12-30T02:07:47.051Z,1.83
2023-12-30T02:10:14.531Z,1.90
2023-12-30T02:12:41.931Z,1.55
2023-12-30T02:15:26.155Z,1.60
2023-12-30T02:17:57.707Z,1.80
2023-12-30T02:20:26.217Z,1.77
2023-12-30T02:22:53.248Z,2.13
2023-12-30T02:25:20.533Z,2.45
2023-12-30T02:27:48.095Z,2.13
2023-12-30T02:30:15.597Z,1.98
2023-12-30T02:32:43.021Z,1.80
2023-12-30T02:35:10.169Z,1.55
2023-12-30T02:37:37.306Z,1.80
2023-12-30T02:40:04.826Z,1.60
2023-12-30T02:42:31.814Z,1.88
2023-12-30T02:44:58.825Z,1.70
2023-12-30T02:47:25.859Z,2.20
2023-12-30T02:49:53.045Z,2.10
2023-12-30T02:52:20.068Z,1.50
2023-12-30T02:54:47.179Z,1.70
2023-12-30T02:57:14.279Z,1.98
2023-12-30T02:59:41.267Z,1.92
2023-12-30T03:02:08.419Z,1.73
2023-12-30T03:04:35.704Z,1.75
2023-12-30T03:07:02.891Z,2.00
2023-12-30T03:09:29.913Z,2.75
2023-12-30T03:11:56.899Z,1.90
2023-12-30T03:14:23.863Z,1.83
2023-12-30T03:16:50.818Z,2.55
2023-12-30T03:19:17.938Z,1.80
2023-12-30T03:21:46.281Z,2.00
2023-12-30T03:24:13.737Z,2.03
2023-12-30T03:26:40.650Z,2.25
2023-12-30T03:29:07.652Z,2.30
2023-12-30T03:31:34.765Z,2.10
2023-12-30T03:34:01.950Z,2.45
2023-12-30T03:36:28.998Z,2.55
2023-12-30T03:38:56.011Z,2.83
2023-12-30T03:41:23.280Z,2.00
2023-12-30T03:43:50.695Z,1.98
2023-12-30T03:46:17.875Z,2.00
2023-12-30T03:48:44.926Z,2.30
2023-12-30T03:51:12.497Z,2.35
2023-12-30T03:53:39.741Z,2.25
2023-12-30T03:56:07.334Z,2.08
2023-12-30T03:58:34.432Z,3.03
2023-12-30T04:01:01.652Z,2.08
2023-12-30T04:03:28.652Z,2.10
2023-12-30T04:05:55.676Z,1.70
2023-12-30T04:08:22.770Z,1.73
2023-12-30T04:10:49.729Z,1.90
2023-12-30T04:13:16.895Z,1.67
2023-12-30T04:15:43.812Z,2.08
2023-12-30T04:18:11.132Z,1.85
2023-12-30T04:20:38.303Z,2.33
2023-12-30T04:23:05.753Z,1.88
2023-12-30T04:25:33.277Z,1.63
2023-12-30T04:28:00.340Z,2.58
2023-12-30T04:30:27.419Z,2.15
2023-12-30T04:32:54.725Z,1.90
2023-12-30T04:35:21.908Z,1.70
2023-12-30T04:37:48.885Z,1.60
2023-12-30T04:40:16.072Z,1.40
2023-12-30T04:42:43.303Z,1.75
2023-12-30T04:45:14.053Z,1.80
2023-12-30T04:47:41.884Z,1.80
2023-12-30T04:50:09.367Z,1.92
2023-12-30T04:52:36.535Z,1.60
2023-12-30T04:55:04.455Z,1.50
2023-12-30T04:57:31.666Z,1.63
2023-12-30T04:59:59.174Z,1.60
2023-12-30T05:02:26.664Z,1.83
2023-12-30T05:04:54.698Z,1.60
2023-12-30T05:07:21.900Z,1.92
2023-12-30T05:09:48.987Z,2.17
2023-12-30T05:12:16.027Z,2.10
2023-12-30T05:14:43.033Z,1.83
2023-12-30T05:17:10.029Z,2.00
2023-12-30T05:19:37.161Z,2.00
2023-12-30T05:22:05.932Z,1.70
2023-12-30T05:24:32.992Z,2.08
2023-12-30T05:27:00.082Z,1.40
2023-12-30T05:29:27.066Z,1.60
2023-12-30T05:31:54.057Z,1.45
2023-12-30T05:34:21.190Z,2.30
2023-12-30T05:36:48.267Z,1.75
2023-12-30T05:39:16.147Z,1.85
2023-12-30T05:41:43.205Z,2.28
2023-12-30T05:44:10.212Z,2.35
2023-12-30T05:46:37.291Z,2.08
2023-12-30T05:49:04.408Z,2.38
2023-12-30T05:51:31.728Z,2.10
2023-12-30T05:53:58.736Z,2.30
2023-12-30T05:56:27.959Z,2.08
2023-12-30T05:58:56.434Z,2.10
2023-12-30T06:01:23.490Z,2.22
2023-12-30T06:03:50.906Z,2.50
2023-12-30T06:06:18.133Z,2.38
2023-12-30T06:08:45.199Z,2.20
2023-12-30T06:11:13.943Z,2.58
2023-12-30T06:13:42.480Z,2.13
2023-12-30T06:16:11.737Z,2.58
2023-12-30T06:18:39.240Z,2.30
2023-12-30T06:21:06.422Z,2.55
2023-12-30T06:23:33.699Z,2.30
2023-12-30T06:26:02.701Z,3.20
2023-12-30T06:28:29.841Z,2.70
2023-12-30T06:30:57.339Z,2.25
2023-12-30T06:33:25.417Z,2.17
2023-12-30T06:35:52.736Z,2.70
2023-12-30T06:38:19.911Z,2.28
2023-12-30T06:40:46.992Z,2.80
2023-12-30T06:43:15.087Z,2.35
2023-12-30T06:45:42.183Z,2.63
2023-12-30T06:48:09.305Z,2.30
2023-12-30T06:50:36.670Z,2.40
2023-12-30T06:53:04.113Z,2.40
2023-12-30T06:55:38.208Z,2.55
2023-12-30T06:58:09.920Z,2.25
2023-12-30T07:00:37.394Z,2.25
2023-12-30T07:03:05.411Z,2.70
2023-12-30T07:05:37.954Z,2.15
2023-12-30T07:08:05.718Z,2.53
2023-12-30T07:10:33.091Z,2.65
2023-12-30T07:13:00.395Z,2.97
2023-12-30T07:15:27.786Z,2.72
2023-12-30T07:17:55.842Z,2.72
2023-12-30T07:20:23.105Z,3.75
2023-12-30T07:22:50.135Z,2.92
2023-12-30T07:25:17.491Z,3.05
2023-12-30T07:27:44.672Z,3.30
2023-12-30T07:30:12.538Z,3.00
2023-12-30T07:32:39.769Z,4.22
2023-12-30T07:35:07.740Z,2.67
2023-12-30T07:37:36.263Z,2.80
2023-12-30T07:40:07.621Z,3.75
2023-12-30T07:42:34.830Z,2.80
2023-12-30T07:45:01.828Z,3.42
2023-12-30T07:47:28.864Z,3.13
2023-12-30T07:49:56.140Z,3.38
2023-12-30T07:52:23.302Z,3.15
2023-12-30T07:54:50.308Z,3.17
2023-12-30T07:57:17.397Z,2.90
2023-12-30T07:59:44.763Z,2.85
2023-12-30T08:02:11.768Z,2.70
2023-12-30T08:04:38.793Z,4.20
2023-12-30T08:07:05.877Z,3.10
2023-12-30T08:09:32.964Z,3.17
2023-12-30T08:12:02.895Z,3.20
2023-12-30T08:14:30.838Z,2.92
2023-12-30T08:16:59.485Z,2.47
2023-12-30T08:19:26.525Z,3.15
2023-12-30T08:21:53.567Z,2.72
2023-12-30T08:24:21.762Z,2.53
2023-12-30T08:26:48.939Z,2.72
2023-12-30T08:29:17.151Z,2.75
2023-12-30T08:31:47.229Z,2.45
2023-12-30T08:34:15.431Z,3.10
2023-12-30T08:36:44.388Z,2.75
2023-12-30T08:39:11.776Z,2.83
2023-12-30T08:41:39.255Z,3.33
2023-12-30T08:44:06.284Z,2.72
2023-12-30T08:46:33.519Z,2.80
2023-12-30T08:49:01.526Z,3.20
2023-12-30T08:51:31.237Z,2.53
2023-12-30T08:53:58.494Z,3.08
2023-12-30T08:56:25.958Z,2.63
2023-12-30T08:58:52.974Z,2.97
2023-12-30T09:01:20.116Z,3.25
2023-12-30T09:03:47.467Z,3.10
2023-12-30T09:06:15.109Z,3.80
2023-12-30T09:08:43.252Z,3.28
2023-12-30T09:11:20.877Z,3.17
2023-12-30T09:13:48.624Z,3.13
2023-12-30T09:16:15.810Z,3.00
2023-12-30T09:18:43.886Z,3.47
2023-12-30T09:21:11.101Z,2.92
2023-12-30T09:23:38.986Z,3.15
2023-12-30T09:26:06.366Z,2.75
2023-12-30T09:28:34.755Z,2.88
2023-12-30T09:31:02.653Z,2.75
2023-12-30T09:33:30.020Z,3.00
2023-12-30T09:35:57.271Z,3.47
2023-12-30T09:38:25.996Z,2.80
2023-12-30T09:40:54.655Z,2.53
2023-12-30T09:43:26.513Z,2.25
2023-12-30T09:45:55.841Z,2.00
2023-12-30T09:48:28.950Z,2.25
2023-12-30T09:50:58.164Z,2.50
2023-12-30T09:53:26.244Z,2.97
2023-12-30T09:55:54.389Z,2.50
2023-12-30T09:58:22.848Z,3.25
2023-12-30T10:00:50.184Z,2.25
2023-12-30T10:03:17.556Z,2.50
2023-12-30T10:05:44.899Z,2.42
2023-12-30T10:08:12.403Z,2.42
2023-12-30T10:10:44.551Z,2.17
2023-12-30T10:13:13.659Z,2.28
2023-12-30T10:15:42.604Z,2.30
2023-12-30T10:18:10.159Z,2.13
2023-12-30T10:20:40.892Z,1.67
2023-12-30T10:23:08.625Z,1.90
2023-12-30T10:25:36.868Z,1.40
2023-12-30T10:28:04.443Z,1.92
2023-12-30T10:30:32.477Z,1.30
2023-12-30T10:33:16.501Z,2.47
2023-12-30T10:35:44.948Z,0.97
2023-12-30T10:38:15.477Z,1.48
2023-12-30T10:40:44.841Z,1.00
2023-12-30T10:43:13.812Z,0.90
2023-12-30T10:45:41.944Z,0.95
2023-12-30T10:48:09.561Z,1.02
2023-12-30T10:50:39.296Z,1.70
2023-12-30T10:53:41.161Z,0.98
2023-12-30T10:56:10.891Z,1.33
2023-12-30T10:58:41.310Z,1.52
2023-12-30T11:01:09.303Z,1.45
2023-12-30T11:03:36.831Z,1.60
2023-12-30T11:06:11.488Z,1.40
2023-12-30T11:08:43.120Z,1.30
2023-12-30T11:11:12.885Z,1.10
2023-12-30T11:13:42.842Z,1.48
2023-12-30T11:16:17.847Z,1.40
2023-12-30T11:18:50.162Z,1.27
2023-12-30T11:21:35.610Z,1.50
2023-12-30T11:24:04.680Z,1.50
2023-12-30T11:26:31.977Z,1.33
2023-12-30T11:29:01.052Z,1.30
2023-12-30T11:31:38.420Z,1.23
2023-12-30T11:34:08.327Z,1.17
2023-12-30T11:36:35.837Z,1.63
2023-12-30T11:39:03.022Z,1.65
2023-12-30T11:41:31.560Z,1.30
2023-12-30T11:44:01.295Z,1.10
2023-12-30T11:46:30.425Z,1.48
2023-12-30T11:48:57.998Z,1.80
2023-12-30T11:51:27.357Z,1.60
2023-12-30T11:53:54.966Z,1.58
2023-12-30T11:56:23.658Z,1.50
2023-12-30T11:58:52.483Z,1.30
2023-12-30T12:01:20.394Z,1.88
2023-12-30T12:03:47.737Z,1.83
2023-12-30T12:06:15.468Z,1.88
2023-12-30T12:08:44.321Z,2.08
2023-12-30T12:11:11.639Z,1.70
2023-12-30T12:13:41.178Z,1.63
2023-12-30T12:16:08.968Z,1.70
2023-12-30T12:18:36.626Z,2.00
2023-12-30T12:21:11.980Z,1.67
2023-12-30T12:23:39.027Z,2.15
2023-12-30T12:26:08.308Z,2.00
2023-12-30T12:28:35.654Z,1.90
2023-12-30T12:31:03.708Z,2.10
2023-12-30T12:33:31.215Z,1.60
2023-12-30T12:35:58.620Z,2.03
2023-12-30T12:38:25.791Z,1.70
2023-12-30T12:40:53.025Z,1.98
2023-12-30T12:43:20.118Z,1.88
2023-12-30T12:45:47.292Z,1.85
2023-12-30T12:48:15.216Z,1.25
2023-12-30T12:50:42.296Z,1.38
2023-12-30T12:53:09.253Z,2.10
2023-12-30T12:55:38.090Z,1.33
2023-12-30T12:58:05.211Z,1.50
2023-12-30T13:00:33.210Z,1.23
2023-12-30T13:03:02.139Z,1.35
2023-12-30T13:05:29.636Z,1.20
2023-12-30T13:07:57.536Z,1.27
2023-12-30T13:10:34.089Z,1.13
2023-12-30T13:13:02.178Z,1.42
2023-12-30T13:15:29.642Z,1.20
2023-12-30T13:17:56.884Z,1.42
2023-12-30T13:20:25.413Z,1.33
2023-12-30T13:22:57.685Z,1.50
2023-12-30T13:25:31.551Z,1.25
2023-12-30T13:27:59.383Z,1.35
2023-12-30T13:30:26.459Z,1.83
2023-12-30T13:33:02.607Z,1.20
2023-12-30T13:35:35.591Z,1.50
2023-12-30T13:38:13.255Z,1.80
2023-12-30T13:40:42.714Z,1.40
2023-12-30T13:43:13.802Z,1.70
2023-12-30T13:45:48.089Z,1.75
2023-12-30T13:51:13.241Z,1.25
2023-12-30T13:53:40.557Z,1.60
2023-12-30T13:56:08.264Z,2.05
2023-12-30T13:58:35.759Z,1.20
2023-12-30T14:01:04.974Z,1.40
2023-12-30T14:03:32.136Z,0.93
2023-12-30T14:06:00.189Z,1.40
2023-12-30T14:08:38.154Z,1.80
2023-12-30T14:11:08.829Z,1.90
2023-12-30T14:13:36.063Z,1.30
2023-12-30T14:16:03.836Z,1.33
2023-12-30T14:18:31.104Z,1.25
2023-12-30T14:20:58.220Z,1.30
2023-12-30T14:23:25.298Z,1.75
2023-12-30T14:25:52.444Z,2.20
2023-12-30T14:28:19.582Z,1.60
2023-12-30T14:30:46.714Z,1.65
2023-12-30T14:33:13.845Z,2.33
2023-12-30T14:35:40.996Z,2.25
2023-12-30T14:38:08.247Z,2.20
2023-12-30T14:40:35.863Z,1.70
2023-12-30T14:43:04.855Z,2.72
2023-12-30T14:45:32.016Z,8.15
2023-12-30T14:48:00.767Z,28.17
2023-12-30T14:50:27.916Z,24.20
2023-12-30T14:52:55.009Z,19.17
2023-12-30T14:55:22.166Z,9.50
2023-12-30T14:57:50.155Z,4.28
2023-12-30T15:00:17.949Z,3.17
2023-12-30T15:02:45.901Z,2.72
2023-12-30T15:05:15.797Z,6.85
2023-12-30T15:07:47.556Z,2.65
2023-12-30T15:10:16.363Z,1.92
2023-12-30T15:12:47.433Z,2.10
2023-12-30T15:15:15.393Z,1.92
2023-12-30T15:17:42.787Z,2.10
2023-12-30T15:20:10.604Z,1.92
2023-12-30T15:22:39.400Z,1.27
2023-12-30T15:25:07.267Z,1.88
2023-12-30T15:27:34.475Z,2.10
2023-12-30T15:30:01.619Z,1.80
2023-12-30T15:32:28.911Z,2.58
2023-12-30T15:34:56.174Z,1.77
2023-12-30T15:37:24.491Z,1.88
2023-12-30T15:39:51.713Z,1.75
2023-12-30T15:42:19.008Z,1.95
2023-12-30T15:44:46.048Z,2.22
2023-12-30T15:47:13.165Z,2.22
2023-12-30T15:49:41.717Z,1.98
2023-12-30T15:52:11.265Z,1.70
2023-12-30T15:54:39.183Z,1.90
2023-12-30T15:57:06.591Z,1.70
2023-12-30T15:59:33.745Z,1.80
2023-12-30T16:02:01.476Z,1.60
2023-12-30T16:04:29.018Z,1.73
2023-12-30T16:06:56.428Z,1.50
2023-12-30T16:09:23.873Z,1.30
2023-12-30T16:11:50.821Z,1.63
2023-12-30T16:14:17.855Z,1.30
2023-12-30T16:16:47.857Z,1.85
2023-12-30T16:19:16.917Z,1.52
2023-12-30T16:21:45.934Z,3.08
2023-12-30T16:24:14.852Z,2.35
2023-12-30T16:26:42.539Z,2.15
2023-12-30T16:29:09.851Z,1.73
2023-12-30T16:31:38.038Z,1.98
2023-12-30T16:34:05.475Z,2.13
2023-12-30T16:36:34.491Z,3.90
2023-12-30T16:39:02.481Z,2.03
2023-12-30T16:41:29.689Z,2.58
2023-12-30T16:43:56.862Z,2.58
2023-12-30T16:46:23.981Z,2.58
2023-12-30T16:48:51.177Z,2.75
2023-12-30T16:51:18.204Z,3.30
2023-12-30T16:53:45.169Z,2.70
2023-12-30T16:56:16.866Z,3.58
2023-12-30T16:58:43.988Z,3.33
2023-12-30T17:01:11.197Z,3.10
2023-12-30T17:03:38.377Z,2.90
2023-12-30T17:06:05.948Z,3.58
2023-12-30T17:08:33.095Z,3.60
2023-12-30T17:11:00.202Z,4.97
2023-12-30T17:13:35.029Z,3.42
2023-12-30T17:16:07.365Z,4.22
2023-12-30T17:18:34.557Z,4.18
2023-12-30T17:21:01.598Z,4.00
2023-12-30T17:23:28.608Z,4.10
2023-12-30T17:25:55.712Z,4.72
2023-12-30T17:28:22.674Z,4.50
2023-12-30T17:30:49.930Z,4.53
2023-12-30T17:33:17.004Z,4.50
2023-12-30T17:35:44.489Z,4.57
2023-12-30T17:38:11.639Z,5.45
2023-12-30T17:40:38.794Z,3.88
2023-12-30T17:43:06.024Z,3.85
2023-12-30T17:45:33.189Z,4.75
2023-12-30T17:48:00.355Z,3.97
2023-12-30T17:50:27.683Z,2.92
2023-12-30T17:52:54.721Z,3.83
2023-12-30T17:55:21.950Z,3.53
2023-12-30T17:57:49.007Z,4.38
2023-12-30T18:00:16.273Z,4.13
2023-12-30T18:02:44.147Z,4.13
2023-12-30T18:05:11.521Z,3.22
2023-12-30T18:07:38.610Z,2.95
2023-12-30T18:10:06.146Z,2.83
2023-12-30T18:12:33.540Z,4.35
2023-12-30T18:15:00.529Z,4.25
2023-12-30T18:17:28.954Z,3.83
2023-12-30T18:19:56.227Z,2.67
2023-12-30T18:22:23.384Z,3.03
2023-12-30T18:24:50.689Z,3.17
2023-12-30T18:27:17.782Z,4.15
2023-12-30T18:29:44.819Z,4.45
2023-12-30T18:32:12.120Z,3.40
2023-12-30T18:34:42.152Z,4.97
2023-12-30T18:37:09.270Z,3.47
2023-12-30T18:39:36.491Z,3.83
2023-12-30T18:42:03.772Z,3.58
2023-12-30T18:44:30.941Z,4.22
2023-12-30T18:46:58.869Z,3.22
2023-12-30T18:49:25.949Z,3.10
2023-12-30T18:51:53.059Z,3.85
2023-12-30T18:54:20.078Z,4.18
2023-12-30T18:56:47.512Z,4.18
2023-12-30T18:59:14.532Z,3.83
2023-12-30T19:01:46.485Z,3.53
2023-12-30T19:04:13.900Z,3.30
2023-12-30T19:06:41.027Z,4.00
2023-12-30T19:09:09.016Z,3.63
2023-12-30T19:11:36.555Z,3.72
2023-12-30T19:14:03.568Z,4.45
2023-12-30T19:16:31.587Z,4.20
2023-12-30T19:18:59.253Z,4.10
2023-12-30T19:21:26.672Z,6.18
2023-12-30T19:23:53.744Z,3.63
2023-12-30T19:26:20.976Z,5.03
2023-12-30T19:28:48.057Z,3.42
2023-12-30T19:31:15.068Z,4.88
2023-12-30T19:33:43.485Z,4.20
2023-12-30T19:36:11.743Z,4.57
2023-12-30T19:38:39.283Z,4.93
2023-12-30T19:41:06.325Z,3.92
2023-12-30T19:43:35.389Z,4.43
2023-12-30T19:46:07.417Z,4.25
2023-12-30T19:48:37.834Z,4.10
2023-12-30T19:51:05.646Z,3.80
2023-12-30T19:53:34.062Z,4.13
2023-12-30T19:56:02.876Z,4.07
2023-12-30T19:58:32.152Z,3.58
2023-12-30T20:00:59.551Z,4.03
2023-12-30T20:03:26.956Z,4.00
2023-12-30T20:05:54.487Z,4.00
2023-12-30T20:08:21.893Z,5.18
2023-12-30T20:10:49.751Z,4.18
2023-12-30T20:13:17.072Z,4.03
2023-12-30T20:15:44.140Z,4.10
2023-12-30T20:18:11.614Z,4.10
2023-12-30T20:20:38.898Z,5.47
2023-12-30T20:23:06.592Z,4.70
2023-12-30T20:25:34.051Z,4.55
2023-12-30T20:28:01.854Z,3.75
2023-12-30T20:30:29.140Z,5.40
2023-12-30T20:32:56.241Z,4.07
2023-12-30T20:35:23.396Z,3.42
2023-12-30T20:37:50.501Z,4.45
2023-12-30T20:40:18.816Z,4.43
2023-12-30T20:42:45.973Z,3.75
2023-12-30T20:45:15.426Z,3.85
2023-12-30T20:47:42.613Z,3.70
2023-12-30T20:50:09.973Z,3.83
2023-12-30T20:52:39.039Z,3.88
2023-12-30T20:55:07.802Z,4.05
2023-12-30T20:57:35.101Z,4.32
2023-12-30T21:00:02.388Z,4.20
2023-12-30T21:02:29.624Z,4.47
2023-12-30T21:04:56.772Z,4.05
2023-12-30T21:07:23.806Z,3.28
2023-12-30T21:09:50.932Z,4.28
2023-12-30T21:12:18.262Z,3.28
2023-12-30T21:14:45.206Z,4.95
2023-12-30T21:17:12.429Z,3.58
2023-12-30T21:19:39.500Z,5.38
2023-12-30T21:22:06.760Z,3.92
2023-12-30T21:24:33.769Z,4.05
2023-12-30T21:27:00.942Z,5.75
2023-12-30T21:29:27.965Z,3.55
2023-12-30T21:31:56.031Z,3.60
2023-12-30T21:34:23.079Z,3.63
2023-12-30T21:36:50.084Z,4.60
2023-12-30T21:39:18.623Z,4.05
2023-12-30T21:41:45.722Z,4.22
2023-12-30T21:44:12.743Z,4.10
2023-12-30T21:46:46.573Z,3.92
2023-12-30T21:49:16.301Z,3.83
2023-12-30T21:51:44.758Z,3.65
2023-12-30T21:54:13.613Z,2.95
2023-12-30T21:56:41.203Z,3.58
2023-12-30T21:59:08.792Z,3.20
2023-12-30T22:01:37.465Z,3.40
2023-12-30T22:04:04.982Z,3.92
2023-12-30T22:06:33.680Z,4.50
2023-12-30T22:09:00.747Z,3.60
2023-12-30T22:11:28.810Z,3.88
2023-12-30T22:13:56.834Z,3.17
2023-12-30T22:16:24.079Z,3.08
2023-12-30T22:18:51.475Z,2.90
2023-12-30T22:21:19.320Z,3.40
2023-12-30T22:23:48.145Z,2.65
2023-12-30T22:26:21.181Z,3.60
2023-12-30T22:28:48.385Z,2.72
2023-12-30T22:31:15.559Z,2.88
2023-12-30T22:33:43.266Z,2.78
2023-12-30T22:36:10.358Z,2.55
2023-12-30T22:38:38.476Z,2.63
2023-12-30T22:41:05.641Z,2.15
2023-12-30T22:43:34.193Z,2.38
2023-12-30T22:46:03.059Z,3.03
2023-12-30T22:48:30.205Z,2.28
2023-12-30T22:50:57.491Z,2.53
2023-12-30T22:53:24.536Z,3.50
2023-12-30T22:55:51.556Z,2.47
2023-12-30T22:58:18.564Z,3.13
2023-12-30T23:00:46.917Z,3.25
2023-12-30T23:03:15.336Z,2.38
2023-12-30T23:05:42.511Z,2.67
2023-12-30T23:08:09.743Z,2.53
2023-12-30T23:10:36.688Z,2.60
2023-12-30T23:13:05.519Z,2.42
2023-12-30T23:15:32.930Z,1.88
2023-12-30T23:18:00.369Z,2.70
2023-12-30T23:20:27.454Z,2.60
2023-12-30T23:22:54.397Z,2.22
2023-12-30T23:25:21.551Z,2.97
2023-12-30T23:27:48.685Z,2.28
2023-12-30T23:30:16.433Z,2.28
2023-12-30T23:32:43.581Z,2.30
2023-12-30T23:35:10.772Z,2.78
2023-12-30T23:37:37.770Z,2.15
2023-12-30T23:40:07.985Z,3.58
2023-12-30T23:42:35.307Z,2.83
2023-12-30T23:45:03.122Z,3.05
2023-12-30T23:47:30.205Z,2.53
2023-12-30T23:49:57.927Z,2.70
2023-12-30T23:52:24.992Z,2.70
2023-12-30T23:54:53.782Z,2.17
2023-12-30T23:57:20.907Z,2.38
2023-12-30T23:59:47.975Z,3.05
